createdAt,value
2018-10-06T00:00:33.588Z,12.10
2018-10-06T00:03:01.699Z,12.10
2018-10-06T00:05:29.832Z,12.10
2018-10-06T00:07:57.959Z,12.10
2018-10-06T00:10:26.042Z,12.10
2018-10-06T00:12:54.131Z,12.10
2018-10-06T00:15:22.193Z,12.00
2018-10-06T00:17:50.362Z,12.00
2018-10-06T00:20:18.447Z,12.00
2018-10-06T00:22:46.603Z,12.00
2018-10-06T00:25:14.678Z,12.00
2018-10-06T00:27:42.804Z,12.00
2018-10-06T00:30:10.908Z,12.00
2018-10-06T00:32:39.002Z,12.00
2018-10-06T00:35:07.092Z,12.00
2018-10-06T00:37:35.204Z,12.00
2018-10-06T00:40:03.258Z,11.90
2018-10-06T00:42:31.398Z,11.90
2018-10-06T00:44:59.562Z,11.90
2018-10-06T00:47:27.771Z,11.90
2018-10-06T00:49:55.810Z,11.90
2018-10-06T00:52:23.897Z,11.80
2018-10-06T00:54:51.960Z,11.80
2018-10-06T00:57:20.186Z,11.80
2018-10-06T00:59:48.227Z,11.80
2018-10-06T01:02:16.312Z,11.70
2018-10-06T01:04:44.375Z,11.70
2018-10-06T01:07:12.476Z,11.70
2018-10-06T01:09:40.597Z,11.70
2018-10-06T01:12:08.707Z,11.70
2018-10-06T01:14:36.774Z,11.60
2018-10-06T01:17:04.883Z,11.60
2018-10-06T01:19:34.377Z,11.60
2018-10-06T01:22:02.562Z,11.50
2018-10-06T01:24:30.654Z,11.50
2018-10-06T01:26:58.779Z,11.50
2018-10-06T01:29:30.529Z,11.50
2018-10-06T01:31:59.209Z,11.50
2018-10-06T01:34:27.299Z,11.50
2018-10-06T01:36:55.433Z,11.50
2018-10-06T01:39:23.487Z,11.50
2018-10-06T01:41:51.592Z,11.50
2018-10-06T01:44:19.685Z,11.50
2018-10-06T01:46:47.750Z,11.40
2018-10-06T01:49:15.852Z,11.50
2018-10-06T01:51:43.974Z,11.40
2018-10-06T01:54:12.094Z,11.40
2018-10-06T01:56:40.176Z,11.40
2018-10-06T01:59:08.436Z,11.40
2018-10-06T02:01:36.718Z,11.40
2018-10-06T02:04:04.801Z,11.40
2018-10-06T02:06:32.960Z,11.40
2018-10-06T02:09:01.090Z,11.40
2018-10-06T02:11:29.197Z,11.30
2018-10-06T02:13:57.310Z,11.40
2018-10-06T02:16:25.433Z,11.40
2018-10-06T02:18:53.502Z,11.40
2018-10-06T02:21:21.585Z,11.30
2018-10-06T02:23:49.714Z,11.30
2018-10-06T02:26:17.761Z,11.30
2018-10-06T02:28:45.995Z,11.30
2018-10-06T02:31:14.082Z,11.20
2018-10-06T02:33:42.243Z,11.20
2018-10-06T02:36:10.292Z,11.20
2018-10-06T02:38:38.375Z,11.20
2018-10-06T02:41:06.448Z,11.20
2018-10-06T02:43:34.544Z,11.10
2018-10-06T02:46:02.596Z,11.20
2018-10-06T02:48:30.689Z,11.10
2018-10-06T02:50:58.797Z,11.10
2018-10-06T02:53:26.930Z,11.10
2018-10-06T02:55:54.978Z,11.10
2018-10-06T02:58:23.195Z,11.10
2018-10-06T03:00:51.230Z,11.10
2018-10-06T03:03:19.565Z,11.20
2018-10-06T03:05:47.627Z,11.10
2018-10-06T03:08:15.915Z,11.10
2018-10-06T03:10:44.018Z,11.10
2018-10-06T03:13:12.151Z,11.10
2018-10-06T03:15:40.220Z,11.10
2018-10-06T03:18:08.310Z,11.10
2018-10-06T03:20:36.371Z,11.10
2018-10-06T03:23:04.455Z,11.10
2018-10-06T03:25:32.546Z,11.10
2018-10-06T03:28:00.631Z,11.00
2018-10-06T03:30:28.706Z,11.00
2018-10-06T03:32:56.870Z,11.00
2018-10-06T03:35:24.949Z,11.00
2018-10-06T03:37:53.239Z,10.90
2018-10-06T03:40:21.356Z,10.90
2018-10-06T03:42:49.389Z,10.90
2018-10-06T03:45:17.586Z,10.90
2018-10-06T03:47:45.637Z,10.90
2018-10-06T03:50:13.709Z,10.90
2018-10-06T03:52:41.809Z,10.90
2018-10-06T03:55:09.920Z,10.90
2018-10-06T03:57:37.981Z,10.90
2018-10-06T04:00:06.076Z,10.90
2018-10-06T04:02:34.207Z,10.90
2018-10-06T04:05:02.363Z,10.90
2018-10-06T04:07:30.391Z,10.90
2018-10-06T04:09:58.471Z,10.80
2018-10-06T04:12:26.534Z,10.80
2018-10-06T04:14:54.714Z,10.80
2018-10-06T04:17:22.828Z,10.80
2018-10-06T04:19:50.910Z,10.80
2018-10-06T04:22:18.998Z,10.70
2018-10-06T04:24:47.088Z,10.70
2018-10-06T04:27:15.221Z,10.70
2018-10-06T04:29:43.329Z,10.70
2018-10-06T04:32:11.421Z,10.70
2018-10-06T04:34:39.530Z,10.70
2018-10-06T04:37:07.633Z,10.70
2018-10-06T04:39:35.719Z,10.70
2018-10-06T04:42:03.765Z,10.70
2018-10-06T04:44:31.962Z,10.70
2018-10-06T04:46:59.987Z,10.60
2018-10-06T04:49:28.208Z,10.60
2018-10-06T04:51:56.246Z,10.60
2018-10-06T04:54:24.375Z,10.60
2018-10-06T04:56:52.460Z,10.70
2018-10-06T04:59:20.587Z,10.70
2018-10-06T05:01:48.657Z,10.70
2018-10-06T05:04:16.830Z,10.80
2018-10-06T05:06:44.897Z,10.80
2018-10-06T05:09:12.997Z,10.80
2018-10-06T05:11:41.074Z,10.80
2018-10-06T05:14:09.189Z,10.80
2018-10-06T05:16:37.307Z,10.80
2018-10-06T05:19:05.377Z,10.80
2018-10-06T05:21:33.479Z,10.80
2018-10-06T05:24:01.576Z,10.80
2018-10-06T05:26:29.674Z,10.80
2018-10-06T05:28:57.774Z,10.80
2018-10-06T05:31:25.862Z,10.80
2018-10-06T05:33:53.944Z,10.80
2018-10-06T05:36:22.061Z,10.80
2018-10-06T05:38:50.142Z,10.80
2018-10-06T05:41:18.207Z,10.80
2018-10-06T05:43:46.305Z,10.90
2018-10-06T05:46:14.522Z,10.90
2018-10-06T05:48:42.574Z,10.90
2018-10-06T05:51:10.675Z,10.90
2018-10-06T05:53:38.951Z,11.00
2018-10-06T05:56:07.019Z,10.90
2018-10-06T05:58:35.184Z,10.90
2018-10-06T06:01:03.338Z,10.90
2018-10-06T06:03:31.381Z,11.00
2018-10-06T06:05:59.486Z,11.00
2018-10-06T06:08:27.625Z,11.00
2018-10-06T06:10:55.845Z,11.00
2018-10-06T06:13:23.890Z,11.10
2018-10-06T06:15:52.020Z,11.20
2018-10-06T06:18:20.104Z,11.10
2018-10-06T06:20:48.223Z,11.20
2018-10-06T06:23:16.279Z,11.20
2018-10-06T06:25:44.367Z,11.20
2018-10-06T06:28:12.476Z,11.30
2018-10-06T06:30:41.037Z,11.30
2018-10-06T06:33:09.096Z,11.30
2018-10-06T06:35:37.197Z,11.40
2018-10-06T06:38:05.367Z,11.50
2018-10-06T06:40:33.579Z,11.40
2018-10-06T06:43:01.625Z,11.50
2018-10-06T06:45:29.819Z,11.50
2018-10-06T06:47:57.890Z,11.60
2018-10-06T06:50:25.987Z,11.60
2018-10-06T06:52:54.056Z,11.70
2018-10-06T06:55:22.191Z,11.70
2018-10-06T06:57:50.295Z,11.70
2018-10-06T07:00:18.386Z,11.80
2018-10-06T07:02:46.648Z,11.80
2018-10-06T07:05:14.710Z,11.90
2018-10-06T07:10:17.355Z,12.10
2018-10-06T07:12:45.542Z,12.10
2018-10-06T07:15:13.586Z,12.30
2018-10-06T07:17:41.719Z,12.30
2018-10-06T07:20:09.857Z,12.40
2018-10-06T07:22:37.969Z,12.40
2018-10-06T07:25:06.229Z,12.60
2018-10-06T07:27:34.375Z,12.70
2018-10-06T07:30:02.426Z,12.80
2018-10-06T07:32:30.555Z,12.90
2018-10-06T07:34:58.602Z,13.00
2018-10-06T07:37:26.769Z,13.10
2018-10-06T07:39:54.844Z,13.10
2018-10-06T07:42:22.941Z,13.20
2018-10-06T07:44:51.095Z,13.30
2018-10-06T07:47:19.120Z,13.50
2018-10-06T07:49:47.169Z,13.60
2018-10-06T07:52:15.354Z,13.60
2018-10-06T07:54:43.418Z,13.70
2018-10-06T07:57:11.500Z,13.80
2018-10-06T07:59:39.607Z,13.90
2018-10-06T08:02:07.702Z,13.90
2018-10-06T08:04:35.768Z,14.00
2018-10-06T08:07:03.868Z,14.10
2018-10-06T08:09:31.930Z,14.10
2018-10-06T08:12:00.062Z,14.20
2018-10-06T08:14:28.189Z,14.40
2018-10-06T08:16:56.538Z,14.60
2018-10-06T08:19:24.607Z,14.70
2018-10-06T08:21:52.703Z,14.80
2018-10-06T08:24:20.750Z,14.80
2018-10-06T08:26:48.840Z,14.90
2018-10-06T08:29:17.002Z,14.90
2018-10-06T08:31:45.079Z,14.90
2018-10-06T08:34:13.154Z,15.10
2018-10-06T08:36:41.279Z,15.10
2018-10-06T08:39:09.700Z,15.20
2018-10-06T08:41:37.781Z,15.30
2018-10-06T08:44:05.874Z,15.40
2018-10-06T08:46:34.124Z,15.50
2018-10-06T08:49:02.194Z,15.50
2018-10-06T08:51:30.346Z,15.60
2018-10-06T08:53:58.402Z,15.80
2018-10-06T08:56:26.528Z,15.90
2018-10-06T08:58:54.537Z,16.00
2018-10-06T09:01:23.315Z,16.20
2018-10-06T09:03:51.378Z,16.30
2018-10-06T09:06:19.498Z,16.50
2018-10-06T09:08:47.594Z,16.50
2018-10-06T09:11:15.660Z,16.60
2018-10-06T09:13:43.790Z,16.70
2018-10-06T09:16:11.862Z,16.80
2018-10-06T09:18:39.928Z,17.00
2018-10-06T09:21:08.025Z,17.00
2018-10-06T09:23:36.128Z,17.10
2018-10-06T09:26:04.184Z,17.30
2018-10-06T09:28:32.277Z,17.40
2018-10-06T09:31:00.327Z,17.50
2018-10-06T09:33:28.389Z,17.80
2018-10-06T09:35:56.462Z,18.00
2018-10-06T09:38:24.539Z,18.10
2018-10-06T09:40:52.913Z,18.20
2018-10-06T09:43:21.036Z,18.20
2018-10-06T09:45:49.168Z,18.30
2018-10-06T09:48:17.321Z,18.50
2018-10-06T09:50:45.313Z,18.50
2018-10-06T09:53:13.395Z,18.60
2018-10-06T09:55:41.463Z,18.60
2018-10-06T09:58:09.582Z,18.70
2018-10-06T10:01:46.907Z,19.00
2018-10-06T10:04:16.477Z,19.10
2018-10-06T10:06:44.565Z,19.40
2018-10-06T10:09:14.013Z,19.50
2018-10-06T10:11:42.097Z,19.60
2018-10-06T10:14:10.666Z,19.70
2018-10-06T10:16:38.767Z,19.80
2018-10-06T10:19:06.982Z,19.80
2018-10-06T10:21:35.212Z,19.90
2018-10-06T10:24:03.322Z,20.00
2018-10-06T10:26:31.691Z,20.10
2018-10-06T10:28:59.876Z,20.10
2018-10-06T10:31:27.897Z,20.20
2018-10-06T10:33:55.998Z,20.30
2018-10-06T10:36:24.102Z,20.30
2018-10-06T10:38:52.355Z,20.50
2018-10-06T10:41:20.471Z,20.60
2018-10-06T10:43:48.565Z,20.60
2018-10-06T10:46:16.609Z,20.70
2018-10-06T10:48:44.705Z,20.80
2018-10-06T10:51:12.758Z,20.90
2018-10-06T10:53:40.848Z,21.00
2018-10-06T10:56:08.910Z,20.80
2018-10-06T10:58:37.013Z,21.00
2018-10-06T11:01:05.222Z,21.00
2018-10-06T11:03:33.270Z,21.10
2018-10-06T11:06:01.372Z,21.20
2018-10-06T11:08:29.446Z,21.30
2018-10-06T11:10:57.538Z,21.50
2018-10-06T11:13:25.656Z,21.60
2018-10-06T11:15:53.739Z,21.80
2018-10-06T11:18:21.820Z,22.00
2018-10-06T11:20:49.868Z,21.90
2018-10-06T11:23:18.124Z,22.00
2018-10-06T11:25:46.202Z,21.90
2018-10-06T11:28:14.280Z,21.80
2018-10-06T11:30:42.354Z,21.60
2018-10-06T11:33:10.461Z,21.70
2018-10-06T11:35:38.505Z,21.90
2018-10-06T11:38:06.708Z,21.90
2018-10-06T11:40:35.148Z,21.80
2018-10-06T11:43:03.243Z,21.90
2018-10-06T11:45:31.294Z,22.00
2018-10-06T11:47:59.401Z,22.10
2018-10-06T11:50:27.584Z,22.10
2018-10-06T11:52:55.567Z,22.20
2018-10-06T11:55:23.619Z,22.20
2018-10-06T11:57:51.701Z,22.40
2018-10-06T12:00:19.882Z,22.50
2018-10-06T12:02:47.850Z,22.70
2018-10-06T12:05:15.969Z,22.90
2018-10-06T12:07:43.999Z,23.00
2018-10-06T12:10:12.090Z,23.00
2018-10-06T12:12:40.147Z,23.10
2018-10-06T12:15:08.403Z,23.30
2018-10-06T12:17:36.547Z,23.60
2018-10-06T12:20:04.656Z,23.90
2018-10-06T12:22:32.745Z,23.70
2018-10-06T12:25:00.855Z,23.50
2018-10-06T12:27:29.070Z,23.50
2018-10-06T12:29:57.334Z,23.60
2018-10-06T12:32:25.453Z,23.70
2018-10-06T12:34:53.579Z,23.90
2018-10-06T12:37:21.649Z,23.80
2018-10-06T12:39:49.714Z,23.80
2018-10-06T12:42:17.820Z,23.80
2018-10-06T12:44:45.866Z,23.90
2018-10-06T12:47:13.955Z,24.20
2018-10-06T12:49:42.012Z,24.30
2018-10-06T12:52:10.166Z,24.20
2018-10-06T12:54:38.229Z,24.10
2018-10-06T12:57:06.353Z,24.20
2018-10-06T12:59:34.498Z,24.10
2018-10-06T13:02:02.674Z,24.20
2018-10-06T13:04:30.731Z,24.20
2018-10-06T13:06:58.930Z,24.20
2018-10-06T13:09:27.095Z,24.40
2018-10-06T13:11:55.218Z,24.40
2018-10-06T13:14:23.236Z,24.50
2018-10-06T13:16:51.417Z,24.60
2018-10-06T13:19:19.469Z,24.70
2018-10-06T13:21:47.538Z,24.80
2018-10-06T13:24:15.623Z,24.80
2018-10-06T13:26:43.755Z,24.80
2018-10-06T13:29:11.892Z,24.90
2018-10-06T13:31:39.986Z,24.90
2018-10-06T13:34:08.077Z,24.90
2018-10-06T13:36:36.305Z,25.10
2018-10-06T13:39:05.202Z,25.20
2018-10-06T13:41:33.284Z,25.30
2018-10-06T13:44:01.342Z,25.30
2018-10-06T13:46:29.435Z,25.50
2018-10-06T13:48:57.496Z,25.70
2018-10-06T13:51:25.546Z,26.20
2018-10-06T13:53:53.630Z,27.20
2018-10-06T13:56:21.700Z,28.10
2018-10-06T13:58:49.915Z,29.10
2018-10-06T14:01:17.963Z,31.30
2018-10-06T14:03:46.153Z,32.90
2018-10-06T14:06:14.295Z,34.10
2018-10-06T14:08:42.415Z,34.50
2018-10-06T14:11:10.477Z,34.50
2018-10-06T14:13:38.621Z,34.80
2018-10-06T14:16:06.715Z,35.30
2018-10-06T14:18:34.788Z,34.60
2018-10-06T14:21:02.915Z,34.00
2018-10-06T14:23:30.986Z,32.90
2018-10-06T14:25:59.047Z,31.70
2018-10-06T14:28:27.213Z,30.90
2018-10-06T14:30:55.438Z,30.80
2018-10-06T14:33:23.538Z,30.10
2018-10-06T14:35:51.659Z,29.80
2018-10-06T14:38:19.786Z,28.90
2018-10-06T14:40:47.864Z,29.20
2018-10-06T14:43:16.022Z,29.20
2018-10-06T14:45:44.076Z,29.20
2018-10-06T14:48:12.152Z,29.10
2018-10-06T14:50:40.224Z,28.80
2018-10-06T14:53:08.294Z,28.40
2018-10-06T14:55:36.332Z,28.10
2018-10-06T14:58:04.412Z,27.70
2018-10-06T15:00:32.461Z,27.30
2018-10-06T15:03:00.551Z,27.00
2018-10-06T15:05:28.746Z,26.60
2018-10-06T15:07:56.901Z,26.30
2018-10-06T15:10:25.027Z,26.30
2018-10-06T15:12:53.090Z,26.00
2018-10-06T15:15:21.151Z,25.70
2018-10-06T15:17:49.236Z,25.80
2018-10-06T15:20:17.287Z,25.60
2018-10-06T15:22:45.472Z,25.40
2018-10-06T15:25:13.658Z,25.30
2018-10-06T15:27:42.085Z,25.30
2018-10-06T15:30:10.446Z,25.30
2018-10-06T15:32:39.030Z,25.20
2018-10-06T15:35:07.164Z,25.20
2018-10-06T15:37:35.666Z,25.20
2018-10-06T15:40:03.696Z,25.10
2018-10-06T15:42:31.799Z,25.00
2018-10-06T15:45:00.085Z,24.90
2018-10-06T15:47:28.161Z,24.70
2018-10-06T15:49:56.355Z,24.60
2018-10-06T15:52:24.416Z,24.40
2018-10-06T15:54:52.654Z,24.20
2018-10-06T15:57:21.087Z,24.10
2018-10-06T15:59:49.158Z,23.90
2018-10-06T16:02:17.370Z,23.80
2018-10-06T16:04:45.498Z,23.70
2018-10-06T16:07:13.570Z,23.50
2018-10-06T16:09:41.731Z,23.30
2018-10-06T16:12:09.783Z,23.20
2018-10-06T16:14:37.961Z,23.10
2018-10-06T16:17:06.101Z,23.00
2018-10-06T16:19:34.329Z,22.80
2018-10-06T16:22:02.383Z,22.70
2018-10-06T16:24:30.488Z,22.70
2018-10-06T16:26:58.602Z,22.50
2018-10-06T16:29:26.690Z,22.40
2018-10-06T16:31:54.760Z,22.30
2018-10-06T16:34:22.838Z,22.20
2018-10-06T16:36:50.880Z,22.10
2018-10-06T16:39:18.998Z,22.00
2018-10-06T16:41:47.058Z,21.90
2018-10-06T16:44:15.205Z,21.80
2018-10-06T16:46:43.291Z,21.70
2018-10-06T16:49:11.494Z,21.70
2018-10-06T16:51:39.598Z,21.60
2018-10-06T16:54:07.775Z,21.50
2018-10-06T16:56:35.846Z,21.40
2018-10-06T16:59:03.920Z,21.30
2018-10-06T17:01:31.992Z,21.30
2018-10-06T17:04:00.094Z,21.20
2018-10-06T17:06:28.170Z,21.10
2018-10-06T17:08:56.314Z,21.00
2018-10-06T17:11:24.362Z,20.90
2018-10-06T17:13:52.494Z,20.80
2018-10-06T17:16:20.666Z,20.70
2018-10-06T17:18:48.779Z,20.70
2018-10-06T17:21:16.860Z,20.60
2018-10-06T17:23:44.902Z,20.50
2018-10-06T17:26:12.994Z,20.40
2018-10-06T17:28:41.073Z,20.40
2018-10-06T17:31:09.261Z,20.30
2018-10-06T17:33:37.252Z,20.30
2018-10-06T17:36:05.366Z,20.20
2018-10-06T17:38:33.442Z,20.20
2018-10-06T17:41:01.518Z,20.10
2018-10-06T17:43:30.684Z,20.10
2018-10-06T17:45:58.858Z,20.10
2018-10-06T17:48:27.137Z,20.00
2018-10-06T17:50:55.668Z,20.00
2018-10-06T17:53:23.780Z,20.00
2018-10-06T17:55:52.018Z,19.90
2018-10-06T17:58:20.119Z,19.90
2018-10-06T18:00:48.224Z,19.80
2018-10-06T18:03:16.329Z,19.80
2018-10-06T18:05:44.418Z,19.70
2018-10-06T18:08:12.631Z,19.70
2018-10-06T18:10:40.762Z,19.70
2018-10-06T18:13:08.841Z,19.60
2018-10-06T18:15:37.071Z,19.60
2018-10-06T18:18:05.693Z,19.60
2018-10-06T18:20:33.933Z,19.50
2018-10-06T18:23:01.844Z,19.40
2018-10-06T18:25:29.924Z,19.40
2018-10-06T18:27:57.997Z,19.40
2018-10-06T18:30:26.162Z,19.40
2018-10-06T18:32:54.334Z,19.30
2018-10-06T18:35:22.546Z,19.30
2018-10-06T18:37:50.678Z,19.30
2018-10-06T18:40:18.861Z,19.20
2018-10-06T18:42:46.940Z,19.30
2018-10-06T18:45:15.039Z,19.30
2018-10-06T18:47:43.108Z,19.30
2018-10-06T18:50:11.197Z,19.20
2018-10-06T18:52:39.254Z,19.20
2018-10-06T18:55:07.374Z,19.20
2018-10-06T18:57:35.540Z,19.20
2018-10-06T19:00:03.757Z,19.20
2018-10-06T19:02:31.816Z,19.10
2018-10-06T19:04:59.898Z,19.10
2018-10-06T19:07:28.072Z,19.10
2018-10-06T19:09:56.210Z,19.00
2018-10-06T19:12:24.241Z,18.90
2018-10-06T19:14:52.294Z,19.00
2018-10-06T19:17:20.379Z,18.90
2018-10-06T19:19:48.524Z,18.80
2018-10-06T19:22:16.911Z,18.70
2018-10-06T19:24:44.986Z,18.70
2018-10-06T19:27:13.087Z,18.80
2018-10-06T19:29:41.207Z,18.80
2018-10-06T19:32:09.300Z,18.80
2018-10-06T19:34:37.361Z,18.80
2018-10-06T19:37:05.550Z,18.70
2018-10-06T19:39:33.646Z,18.70
2018-10-06T19:42:01.716Z,18.70
2018-10-06T19:44:29.866Z,18.70
2018-10-06T19:46:58.041Z,18.60
2018-10-06T19:49:26.111Z,18.60
2018-10-06T19:51:54.186Z,18.60
2018-10-06T19:54:22.239Z,18.60
2018-10-06T19:56:50.336Z,18.60
2018-10-06T19:59:18.414Z,18.60
2018-10-06T20:01:46.496Z,18.50
2018-10-06T20:04:14.610Z,18.50
2018-10-06T20:06:42.737Z,18.40
2018-10-06T20:09:11.438Z,18.30
2018-10-06T20:11:39.672Z,18.30
2018-10-06T20:14:07.898Z,18.20
2018-10-06T20:16:36.014Z,18.20
2018-10-06T20:19:04.210Z,18.10
2018-10-06T20:21:32.237Z,18.10
2018-10-06T20:24:00.334Z,18.10
2018-10-06T20:26:28.446Z,18.10
2018-10-06T20:28:56.517Z,18.10
2018-10-06T20:31:24.602Z,18.00
2018-10-06T20:33:53.014Z,18.00
2018-10-06T20:36:21.095Z,18.00
2018-10-06T20:38:49.219Z,17.90
2018-10-06T20:41:17.278Z,17.90
2018-10-06T20:43:45.379Z,17.90
2018-10-06T20:46:13.470Z,17.80
2018-10-06T20:48:41.540Z,17.80
2018-10-06T20:51:09.627Z,17.80
2018-10-06T20:53:37.717Z,17.80
2018-10-06T20:56:05.982Z,17.70
2018-10-06T20:58:34.119Z,17.80
2018-10-06T21:01:02.223Z,17.80
2018-10-06T21:03:30.338Z,17.80
2018-10-06T21:05:58.425Z,17.70
2018-10-06T21:08:26.614Z,17.70
2018-10-06T21:10:54.778Z,17.70
2018-10-06T21:13:22.803Z,17.70
2018-10-06T21:15:50.899Z,17.60
2018-10-06T21:18:19.037Z,17.60
2018-10-06T21:20:47.035Z,17.50
2018-10-06T21:23:15.099Z,17.50
2018-10-06T21:25:43.987Z,17.50
2018-10-06T21:28:12.121Z,17.40
2018-10-06T21:30:40.365Z,17.40
2018-10-06T21:33:08.567Z,17.40
2018-10-06T21:35:36.583Z,17.30
2018-10-06T21:38:04.714Z,17.30
2018-10-06T21:40:32.774Z,17.30
2018-10-06T21:43:00.884Z,17.20
2018-10-06T21:45:29.128Z,17.20
2018-10-06T21:50:31.830Z,17.10
2018-10-06T21:52:59.952Z,17.10
2018-10-06T21:55:28.010Z,17.10
2018-10-06T21:57:56.112Z,17.10
2018-10-06T22:00:24.201Z,17.00
2018-10-06T22:02:52.282Z,17.00
2018-10-06T22:05:20.385Z,17.00
2018-10-06T22:07:48.519Z,17.00
2018-10-06T22:10:16.582Z,17.00
2018-10-06T22:12:44.675Z,17.10
2018-10-06T22:15:13.483Z,17.10
2018-10-06T22:17:41.525Z,17.10
2018-10-06T22:20:09.625Z,17.10
2018-10-06T22:22:37.705Z,17.10
2018-10-06T22:25:05.935Z,17.10
2018-10-06T22:27:34.049Z,17.10
2018-10-06T22:30:02.130Z,17.10
2018-10-06T22:32:30.285Z,17.10
2018-10-06T22:34:58.485Z,17.10
2018-10-06T22:37:26.554Z,17.20
2018-10-06T22:39:54.642Z,17.20
2018-10-06T22:42:22.784Z,17.20
2018-10-06T22:44:50.880Z,17.20
2018-10-06T22:47:18.954Z,17.20
2018-10-06T22:49:47.097Z,17.20
2018-10-06T22:52:15.249Z,17.20
2018-10-06T22:54:43.327Z,17.20
2018-10-06T22:57:11.410Z,17.20
2018-10-06T22:59:39.529Z,17.20
2018-10-06T23:02:07.582Z,17.20
2018-10-06T23:04:35.718Z,17.20
2018-10-06T23:07:03.844Z,17.10
2018-10-06T23:09:31.967Z,17.10
2018-10-06T23:12:00.031Z,17.00
2018-10-06T23:14:28.125Z,17.00
2018-10-06T23:16:56.214Z,17.00
2018-10-06T23:19:24.353Z,17.00
2018-10-06T23:21:52.441Z,16.90
2018-10-06T23:24:20.554Z,16.90
2018-10-06T23:26:48.621Z,16.80
2018-10-06T23:29:16.711Z,16.90
2018-10-06T23:31:44.828Z,16.80
2018-10-06T23:34:12.910Z,16.80
2018-10-06T23:36:41.101Z,16.80
2018-10-06T23:39:09.276Z,16.80
2018-10-06T23:41:37.306Z,16.70
2018-10-06T23:44:05.542Z,16.70
2018-10-06T23:46:33.605Z,16.70
2018-10-06T23:49:01.738Z,16.60
2018-10-06T23:51:29.815Z,16.60
2018-10-06T23:53:57.947Z,16.60
2018-10-06T23:56:26.042Z,16.60
2018-10-06T23:58:54.110Z,16.50
